sensor_id;sensor_type;location;lat;lon;timestamp;P1;durP1;ratioP1;P2;durP2;ratioP2
17947;SDS011;9099;47.958;11.366;2023-10-13T00:01:53;2.92;;;2.00;;
17947;SDS011;9099;47.958;11.366;2023-10-13T00:04:20;2.75;;;2.25;;
17947;SDS011;9099;47.958;11.366;2023-10-13T00:06:50;2.45;;;1.90;;
17947;SDS011;9099;47.958;11.366;2023-10-13T00:09:17;4.00;;;2.17;;
17947;SDS011;9099;47.958;11.366;2023-10-13T00:11:45;4.50;;;2.38;;
17947;SDS011;9099;47.958;11.366;2023-10-13T00:14:13;3.38;;;2.28;;
17947;SDS011;9099;47.958;11.366;2023-10-13T00:16:42;3.15;;;2.10;;
17947;SDS011;9099;47.958;11.366;2023-10-13T00:19:26;4.78;;;2.22;;
17947;SDS011;9099;47.958;11.366;2023-10-13T00:21:53;3.92;;;2.08;;
17947;SDS011;9099;47.958;11.366;2023-10-13T00:24:21;4.40;;;2.25;;
17947;SDS011;9099;47.958;11.366;2023-10-13T00:26:54;2.22;;;2.00;;
17947;SDS011;9099;47.958;11.366;2023-10-13T00:29:24;4.00;;;2.30;;
17947;SDS011;9099;47.958;11.366;2023-10-13T00:32:02;5.05;;;2.35;;
17947;SDS011;9099;47.958;11.366;2023-10-13T00:34:29;2.47;;;2.13;;
17947;SDS011;9099;47.958;11.366;2023-10-13T00:36:57;4.45;;;2.05;;
17947;SDS011;9099;47.958;11.366;2023-10-13T00:39:41;4.38;;;2.38;;
17947;SDS011;9099;47.958;11.366;2023-10-13T00:42:10;3.25;;;2.13;;
17947;SDS011;9099;47.958;11.366;2023-10-13T00:44:46;6.05;;;2.45;;
17947;SDS011;9099;47.958;11.366;2023-10-13T00:47:13;3.97;;;2.40;;
17947;SDS011;9099;47.958;11.366;2023-10-13T00:49:48;2.50;;;1.77;;
17947;SDS011;9099;47.958;11.366;2023-10-13T00:52:14;2.85;;;1.70;;
17947;SDS011;9099;47.958;11.366;2023-10-13T00:54:44;3.00;;;2.00;;
17947;SDS011;9099;47.958;11.366;2023-10-13T00:57:11;3.15;;;2.08;;
17947;SDS011;9099;47.958;11.366;2023-10-13T00:59:52;3.58;;;2.40;;
17947;SDS011;9099;47.958;11.366;2023-10-13T01:02:19;2.40;;;2.03;;
17947;SDS011;9099;47.958;11.366;2023-10-13T01:05:04;2.05;;;1.85;;
17947;SDS011;9099;47.958;11.366;2023-10-13T01:07:34;3.15;;;2.15;;
17947;SDS011;9099;47.958;11.366;2023-10-13T01:10:02;3.47;;;2.40;;
17947;SDS011;9099;47.958;11.366;2023-10-13T01:12:29;4.20;;;2.20;;
17947;SDS011;9099;47.958;11.366;2023-10-13T01:14:58;3.00;;;2.08;;
17947;SDS011;9099;47.958;11.366;2023-10-13T01:17:24;2.95;;;2.00;;
17947;SDS011;9099;47.958;11.366;2023-10-13T01:19:56;3.28;;;2.00;;
17947;SDS011;9099;47.958;11.366;2023-10-13T01:22:24;4.97;;;2.20;;
17947;SDS011;9099;47.958;11.366;2023-10-13T01:24:51;3.08;;;1.95;;
17947;SDS011;9099;47.958;11.366;2023-10-13T01:27:29;3.85;;;2.20;;
17947;SDS011;9099;47.958;11.366;2023-10-13T01:29:55;4.63;;;1.92;;
17947;SDS011;9099;47.958;11.366;2023-10-13T01:32:30;2.58;;;1.80;;
17947;SDS011;9099;47.958;11.366;2023-10-13T01:34:56;4.13;;;1.92;;
17947;SDS011;9099;47.958;11.366;2023-10-13T01:37:30;2.80;;;2.30;;
17947;SDS011;9099;47.958;11.366;2023-10-13T01:39:58;4.20;;;2.03;;
17947;SDS011;9099;47.958;11.366;2023-10-13T01:42:24;2.92;;;1.80;;
17947;SDS011;9099;47.958;11.366;2023-10-13T01:44:50;2.97;;;2.13;;
17947;SDS011;9099;47.958;11.366;2023-10-13T01:47:23;3.50;;;1.65;;
17947;SDS011;9099;47.958;11.366;2023-10-13T01:49:49;3.28;;;1.90;;
17947;SDS011;9099;47.958;11.366;2023-10-13T01:52:16;3.65;;;2.25;;
17947;SDS011;9099;47.958;11.366;2023-10-13T01:54:42;3.30;;;1.95;;
17947;SDS011;9099;47.958;11.366;2023-10-13T01:57:11;3.97;;;2.03;;
17947;SDS011;9099;47.958;11.366;2023-10-13T01:59:38;4.20;;;2.08;;
17947;SDS011;9099;47.958;11.366;2023-10-13T02:02:09;2.58;;;2.30;;
17947;SDS011;9099;47.958;11.366;2023-10-13T02:04:37;5.65;;;2.40;;
17947;SDS011;9099;47.958;11.366;2023-10-13T02:07:07;3.67;;;2.40;;
17947;SDS011;9099;47.958;11.366;2023-10-13T02:09:33;4.55;;;2.33;;
17947;SDS011;9099;47.958;11.366;2023-10-13T02:12:02;3.50;;;2.08;;
17947;SDS011;9099;47.958;11.366;2023-10-13T02:14:29;5.20;;;2.33;;
17947;SDS011;9099;47.958;11.366;2023-10-13T02:16:58;3.20;;;1.90;;
17947;SDS011;9099;47.958;11.366;2023-10-13T02:19:37;4.30;;;2.08;;
17947;SDS011;9099;47.958;11.366;2023-10-13T02:22:10;2.45;;;2.05;;
17947;SDS011;9099;47.958;11.366;2023-10-13T02:24:37;2.50;;;2.03;;
17947;SDS011;9099;47.958;11.366;2023-10-13T02:27:05;3.30;;;2.03;;
17947;SDS011;9099;47.958;11.366;2023-10-13T02:29:39;3.08;;;2.10;;
17947;SDS011;9099;47.958;11.366;2023-10-13T02:32:07;3.15;;;1.67;;
17947;SDS011;9099;47.958;11.366;2023-10-13T02:34:43;3.00;;;2.00;;
17947;SDS011;9099;47.958;11.366;2023-10-13T02:37:10;4.60;;;2.10;;
17947;SDS011;9099;47.958;11.366;2023-10-13T02:39:38;3.38;;;2.05;;
17947;SDS011;9099;47.958;11.366;2023-10-13T02:42:06;4.22;;;2.00;;
17947;SDS011;9099;47.958;11.366;2023-10-13T02:44:33;3.95;;;2.00;;
17947;SDS011;9099;47.958;11.366;2023-10-13T02:47:02;3.50;;;2.05;;
17947;SDS011;9099;47.958;11.366;2023-10-13T02:49:31;2.63;;;2.03;;
17947;SDS011;9099;47.958;11.366;2023-10-13T02:51:59;3.03;;;1.92;;
17947;SDS011;9099;47.958;11.366;2023-10-13T02:54:30;3.13;;;1.90;;
17947;SDS011;9099;47.958;11.366;2023-10-13T02:57:02;3.10;;;2.22;;
17947;SDS011;9099;47.958;11.366;2023-10-13T02:59:30;5.13;;;2.08;;
17947;SDS011;9099;47.958;11.366;2023-10-13T03:02:05;2.28;;;1.60;;
17947;SDS011;9099;47.958;11.366;2023-10-13T03:04:42;4.40;;;2.15;;
17947;SDS011;9099;47.958;11.366;2023-10-13T03:07:09;2.80;;;2.00;;
17947;SDS011;9099;47.958;11.366;2023-10-13T03:09:37;4.68;;;2.10;;
17947;SDS011;9099;47.958;11.366;2023-10-13T03:12:05;4.95;;;1.88;;
17947;SDS011;9099;47.958;11.366;2023-10-13T03:14:33;2.10;;;1.70;;
17947;SDS011;9099;47.958;11.366;2023-10-13T03:16:59;4.45;;;2.13;;
17947;SDS011;9099;47.958;11.366;2023-10-13T03:19:32;6.88;;;2.63;;
17947;SDS011;9099;47.958;11.366;2023-10-13T03:21:59;4.13;;;2.25;;
17947;SDS011;9099;47.958;11.366;2023-10-13T03:24:34;2.88;;;1.90;;
17947;SDS011;9099;47.958;11.366;2023-10-13T03:27:01;3.75;;;2.03;;
17947;SDS011;9099;47.958;11.366;2023-10-13T03:29:34;4.53;;;2.00;;
17947;SDS011;9099;47.958;11.366;2023-10-13T03:32:01;5.95;;;2.10;;
17947;SDS011;9099;47.958;11.366;2023-10-13T03:34:38;4.38;;;2.20;;
17947;SDS011;9099;47.958;11.366;2023-10-13T03:37:19;5.85;;;2.00;;
17947;SDS011;9099;47.958;11.366;2023-10-13T03:40:03;3.92;;;1.83;;
17947;SDS011;9099;47.958;11.366;2023-10-13T03:42:32;3.83;;;1.70;;
17947;SDS011;9099;47.958;11.366;2023-10-13T03:44:59;4.03;;;2.08;;
17947;SDS011;9099;47.958;11.366;2023-10-13T03:47:26;2.78;;;2.03;;
17947;SDS011;9099;47.958;11.366;2023-10-13T03:49:58;6.35;;;2.30;;
17947;SDS011;9099;47.958;11.366;2023-10-13T03:52:39;2.67;;;2.05;;
17947;SDS011;9099;47.958;11.366;2023-10-13T03:55:06;4.20;;;2.25;;
17947;SDS011;9099;47.958;11.366;2023-10-13T03:57:42;4.22;;;2.47;;
17947;SDS011;9099;47.958;11.366;2023-10-13T04:00:11;4.28;;;1.80;;
17947;SDS011;9099;47.958;11.366;2023-10-13T04:02:46;2.63;;;1.83;;
17947;SDS011;9099;47.958;11.366;2023-10-13T04:05:21;3.10;;;2.00;;
17947;SDS011;9099;47.958;11.366;2023-10-13T04:08:02;3.00;;;1.98;;
17947;SDS011;9099;47.958;11.366;2023-10-13T04:10:48;5.00;;;2.17;;
17947;SDS011;9099;47.958;11.366;2023-10-13T04:13:33;5.57;;;2.33;;
17947;SDS011;9099;47.958;11.366;2023-10-13T04:16:17;4.45;;;2.05;;
17947;SDS011;9099;47.958;11.366;2023-10-13T04:18:58;4.60;;;2.30;;
17947;SDS011;9099;47.958;11.366;2023-10-13T04:21:34;2.67;;;2.03;;
17947;SDS011;9099;47.958;11.366;2023-10-13T04:24:20;4.13;;;2.30;;
17947;SDS011;9099;47.958;11.366;2023-10-13T04:27:03;4.15;;;2.20;;
17947;SDS011;9099;47.958;11.366;2023-10-13T04:30:04;2.88;;;1.88;;
17947;SDS011;9099;47.958;11.366;2023-10-13T04:32:49;5.15;;;2.05;;
17947;SDS011;9099;47.958;11.366;2023-10-13T04:35:31;5.38;;;2.13;;
17947;SDS011;9099;47.958;11.366;2023-10-13T04:38:03;4.45;;;2.08;;
17947;SDS011;9099;47.958;11.366;2023-10-13T04:40:43;3.35;;;2.22;;
17947;SDS011;9099;47.958;11.366;2023-10-13T04:43:24;4.10;;;2.05;;
17947;SDS011;9099;47.958;11.366;2023-10-13T04:46:09;3.88;;;2.17;;
17947;SDS011;9099;47.958;11.366;2023-10-13T04:48:50;3.35;;;2.22;;
17947;SDS011;9099;47.958;11.366;2023-10-13T04:51:21;4.20;;;2.13;;
17947;SDS011;9099;47.958;11.366;2023-10-13T04:54:16;3.95;;;1.90;;
17947;SDS011;9099;47.958;11.366;2023-10-13T04:56:57;3.92;;;1.95;;
17947;SDS011;9099;47.958;11.366;2023-10-13T04:59:42;3.80;;;2.30;;
17947;SDS011;9099;47.958;11.366;2023-10-13T05:02:26;4.28;;;2.10;;
17947;SDS011;9099;47.958;11.366;2023-10-13T05:05:20;3.55;;;2.00;;
17947;SDS011;9099;47.958;11.366;2023-10-13T05:08:10;2.40;;;1.92;;
17947;SDS011;9099;47.958;11.366;2023-10-13T05:10:56;5.40;;;1.85;;
17947;SDS011;9099;47.958;11.366;2023-10-13T05:13:55;6.05;;;2.00;;
17947;SDS011;9099;47.958;11.366;2023-10-13T05:16:44;4.15;;;1.90;;
17947;SDS011;9099;47.958;11.366;2023-10-13T05:19:29;6.00;;;2.70;;
17947;SDS011;9099;47.958;11.366;2023-10-13T05:22:13;5.30;;;2.65;;
17947;SDS011;9099;47.958;11.366;2023-10-13T05:24:57;2.92;;;2.20;;
17947;SDS011;9099;47.958;11.366;2023-10-13T05:27:43;2.53;;;2.03;;
17947;SDS011;9099;47.958;11.366;2023-10-13T05:30:28;2.80;;;2.03;;
17947;SDS011;9099;47.958;11.366;2023-10-13T05:33:12;3.80;;;2.60;;
17947;SDS011;9099;47.958;11.366;2023-10-13T05:35:56;3.53;;;2.10;;
17947;SDS011;9099;47.958;11.366;2023-10-13T05:38:40;2.45;;;2.00;;
17947;SDS011;9099;47.958;11.366;2023-10-13T05:41:24;3.25;;;2.22;;
17947;SDS011;9099;47.958;11.366;2023-10-13T05:44:10;6.50;;;2.38;;
17947;SDS011;9099;47.958;11.366;2023-10-13T05:46:55;3.03;;;2.20;;
17947;SDS011;9099;47.958;11.366;2023-10-13T05:49:35;4.82;;;2.17;;
17947;SDS011;9099;47.958;11.366;2023-10-13T05:52:18;6.45;;;2.60;;
17947;SDS011;9099;47.958;11.366;2023-10-13T05:54:45;7.38;;;2.78;;
17947;SDS011;9099;47.958;11.366;2023-10-13T05:57:29;3.65;;;2.70;;
17947;SDS011;9099;47.958;11.366;2023-10-13T06:00:16;4.22;;;2.38;;
17947;SDS011;9099;47.958;11.366;2023-10-13T06:02:57;5.55;;;2.45;;
17947;SDS011;9099;47.958;11.366;2023-10-13T06:05:41;4.03;;;2.40;;
17947;SDS011;9099;47.958;11.366;2023-10-13T06:08:25;3.17;;;2.28;;
17947;SDS011;9099;47.958;11.366;2023-10-13T06:11:10;2.60;;;1.90;;
17947;SDS011;9099;47.958;11.366;2023-10-13T06:13:54;4.95;;;2.25;;
17947;SDS011;9099;47.958;11.366;2023-10-13T06:16:39;4.57;;;2.30;;
17947;SDS011;9099;47.958;11.366;2023-10-13T06:19:24;3.67;;;1.98;;
17947;SDS011;9099;47.958;11.366;2023-10-13T06:22:08;3.15;;;2.10;;
17947;SDS011;9099;47.958;11.366;2023-10-13T06:24:52;4.15;;;2.28;;
17947;SDS011;9099;47.958;11.366;2023-10-13T06:27:36;4.47;;;2.33;;
17947;SDS011;9099;47.958;11.366;2023-10-13T06:30:21;6.43;;;2.50;;
17947;SDS011;9099;47.958;11.366;2023-10-13T06:32:49;3.80;;;2.35;;
17947;SDS011;9099;47.958;11.366;2023-10-13T06:35:16;4.07;;;2.35;;
17947;SDS011;9099;47.958;11.366;2023-10-13T06:37:48;4.63;;;2.60;;
17947;SDS011;9099;47.958;11.366;2023-10-13T06:40:15;5.57;;;2.50;;
17947;SDS011;9099;47.958;11.366;2023-10-13T06:42:59;5.53;;;2.63;;
17947;SDS011;9099;47.958;11.366;2023-10-13T06:45:38;4.20;;;2.50;;
17947;SDS011;9099;47.958;11.366;2023-10-13T06:48:07;5.03;;;2.67;;
17947;SDS011;9099;47.958;11.366;2023-10-13T06:50:39;3.03;;;2.40;;
17947;SDS011;9099;47.958;11.366;2023-10-13T06:53:06;4.78;;;2.70;;
17947;SDS011;9099;47.958;11.366;2023-10-13T06:55:37;5.78;;;2.50;;
17947;SDS011;9099;47.958;11.366;2023-10-13T06:58:05;3.60;;;2.33;;
17947;SDS011;9099;47.958;11.366;2023-10-13T07:00:32;4.22;;;2.30;;
17947;SDS011;9099;47.958;11.366;2023-10-13T07:02:59;3.95;;;2.28;;
17947;SDS011;9099;47.958;11.366;2023-10-13T07:05:35;3.10;;;2.03;;
17947;SDS011;9099;47.958;11.366;2023-10-13T07:08:03;5.05;;;2.70;;
17947;SDS011;9099;47.958;11.366;2023-10-13T07:10:31;4.88;;;2.55;;
17947;SDS011;9099;47.958;11.366;2023-10-13T07:13:09;8.10;;;2.85;;
17947;SDS011;9099;47.958;11.366;2023-10-13T07:15:38;7.00;;;2.97;;
17947;SDS011;9099;47.958;11.366;2023-10-13T07:18:10;6.97;;;2.70;;
17947;SDS011;9099;47.958;11.366;2023-10-13T07:20:41;4.18;;;2.83;;
17947;SDS011;9099;47.958;11.366;2023-10-13T07:23:10;8.80;;;3.08;;
17947;SDS011;9099;47.958;11.366;2023-10-13T07:25:42;5.15;;;2.50;;
17947;SDS011;9099;47.958;11.366;2023-10-13T07:28:17;6.97;;;2.92;;
17947;SDS011;9099;47.958;11.366;2023-10-13T07:30:44;4.53;;;2.67;;
17947;SDS011;9099;47.958;11.366;2023-10-13T07:33:35;6.70;;;2.92;;
17947;SDS011;9099;47.958;11.366;2023-10-13T07:36:04;4.85;;;3.00;;
17947;SDS011;9099;47.958;11.366;2023-10-13T07:38:40;4.75;;;2.70;;
17947;SDS011;9099;47.958;11.366;2023-10-13T07:41:09;4.00;;;2.97;;
17947;SDS011;9099;47.958;11.366;2023-10-13T07:43:40;5.65;;;2.95;;
17947;SDS011;9099;47.958;11.366;2023-10-13T07:46:08;5.72;;;2.95;;
17947;SDS011;9099;47.958;11.366;2023-10-13T07:48:36;6.63;;;3.08;;
17947;SDS011;9099;47.958;11.366;2023-10-13T07:51:05;6.03;;;3.70;;
17947;SDS011;9099;47.958;11.366;2023-10-13T07:53:37;5.32;;;3.10;;
17947;SDS011;9099;47.958;11.366;2023-10-13T07:56:08;5.15;;;3.30;;
17947;SDS011;9099;47.958;11.366;2023-10-13T07:58:38;4.88;;;2.92;;
17947;SDS011;9099;47.958;11.366;2023-10-13T08:01:17;6.80;;;3.08;;
17947;SDS011;9099;47.958;11.366;2023-10-13T08:03:44;4.75;;;2.88;;
17947;SDS011;9099;47.958;11.366;2023-10-13T08:06:12;4.40;;;3.35;;
17947;SDS011;9099;47.958;11.366;2023-10-13T08:08:47;6.47;;;3.38;;
17947;SDS011;9099;47.958;11.366;2023-10-13T08:11:19;4.75;;;3.05;;
17947;SDS011;9099;47.958;11.366;2023-10-13T08:13:56;5.72;;;3.30;;
17947;SDS011;9099;47.958;11.366;2023-10-13T08:16:25;6.75;;;3.30;;
17947;SDS011;9099;47.958;11.366;2023-10-13T08:19:10;6.55;;;3.15;;
17947;SDS011;9099;47.958;11.366;2023-10-13T08:21:41;5.78;;;3.05;;
17947;SDS011;9099;47.958;11.366;2023-10-13T08:24:14;7.78;;;3.35;;
17947;SDS011;9099;47.958;11.366;2023-10-13T08:26:50;3.88;;;3.10;;
17947;SDS011;9099;47.958;11.366;2023-10-13T08:29:34;4.30;;;2.70;;
17947;SDS011;9099;47.958;11.366;2023-10-13T08:32:45;3.72;;;2.75;;
17947;SDS011;9099;47.958;11.366;2023-10-13T08:35:21;6.32;;;2.88;;
17947;SDS011;9099;47.958;11.366;2023-10-13T08:38:00;7.40;;;2.60;;
17947;SDS011;9099;47.958;11.366;2023-10-13T08:40:40;4.68;;;2.90;;
17947;SDS011;9099;47.958;11.366;2023-10-13T08:43:42;4.65;;;2.85;;
17947;SDS011;9099;47.958;11.366;2023-10-13T08:46:10;5.35;;;3.10;;
17947;SDS011;9099;47.958;11.366;2023-10-13T08:48:52;4.47;;;2.80;;
17947;SDS011;9099;47.958;11.366;2023-10-13T08:51:29;6.55;;;3.03;;
17947;SDS011;9099;47.958;11.366;2023-10-13T08:54:12;4.32;;;2.58;;
17947;SDS011;9099;47.958;11.366;2023-10-13T08:56:58;4.53;;;2.70;;
17947;SDS011;9099;47.958;11.366;2023-10-13T08:59:31;5.13;;;2.50;;
17947;SDS011;9099;47.958;11.366;2023-10-13T09:02:08;4.28;;;2.63;;
17947;SDS011;9099;47.958;11.366;2023-10-13T09:04:42;4.07;;;2.63;;
17947;SDS011;9099;47.958;11.366;2023-10-13T09:07:10;4.38;;;3.20;;
17947;SDS011;9099;47.958;11.366;2023-10-13T09:09:48;6.15;;;2.60;;
17947;SDS011;9099;47.958;11.366;2023-10-13T09:12:36;5.13;;;2.63;;
17947;SDS011;9099;47.958;11.366;2023-10-13T09:15:05;2.75;;;2.33;;
17947;SDS011;9099;47.958;11.366;2023-10-13T09:17:43;4.88;;;2.72;;
17947;SDS011;9099;47.958;11.366;2023-10-13T09:20:17;4.57;;;2.50;;
17947;SDS011;9099;47.958;11.366;2023-10-13T09:22:58;4.50;;;2.67;;
17947;SDS011;9099;47.958;11.366;2023-10-13T09:25:34;5.43;;;2.80;;
17947;SDS011;9099;47.958;11.366;2023-10-13T09:28:03;3.42;;;2.58;;
17947;SDS011;9099;47.958;11.366;2023-10-13T09:30:43;4.10;;;2.58;;
17947;SDS011;9099;47.958;11.366;2023-10-13T09:33:11;4.30;;;2.60;;
17947;SDS011;9099;47.958;11.366;2023-10-13T09:35:41;5.68;;;2.72;;
17947;SDS011;9099;47.958;11.366;2023-10-13T09:38:14;4.10;;;2.72;;
17947;SDS011;9099;47.958;11.366;2023-10-13T09:40:42;3.70;;;3.10;;
17947;SDS011;9099;47.958;11.366;2023-10-13T09:43:15;4.15;;;2.88;;
17947;SDS011;9099;47.958;11.366;2023-10-13T09:45:43;5.00;;;2.85;;
17947;SDS011;9099;47.958;11.366;2023-10-13T09:48:30;3.47;;;2.40;;
17947;SDS011;9099;47.958;11.366;2023-10-13T09:50:59;5.97;;;2.78;;
17947;SDS011;9099;47.958;11.366;2023-10-13T09:53:28;3.92;;;2.78;;
17947;SDS011;9099;47.958;11.366;2023-10-13T09:55:58;5.40;;;2.95;;
17947;SDS011;9099;47.958;11.366;2023-10-13T09:58:40;7.35;;;2.75;;
17947;SDS011;9099;47.958;11.366;2023-10-13T10:01:17;4.55;;;2.90;;
17947;SDS011;9099;47.958;11.366;2023-10-13T10:04:05;5.20;;;2.80;;
17947;SDS011;9099;47.958;11.366;2023-10-13T10:06:33;3.65;;;2.65;;
17947;SDS011;9099;47.958;11.366;2023-10-13T10:09:09;3.85;;;2.78;;
17947;SDS011;9099;47.958;11.366;2023-10-13T10:14:29;6.57;;;3.03;;
17947;SDS011;9099;47.958;11.366;2023-10-13T10:17:20;3.03;;;2.70;;
17947;SDS011;9099;47.958;11.366;2023-10-13T10:19:48;5.35;;;2.50;;
17947;SDS011;9099;47.958;11.366;2023-10-13T10:22:25;4.32;;;2.40;;
17947;SDS011;9099;47.958;11.366;2023-10-13T10:24:58;3.28;;;2.60;;
17947;SDS011;9099;47.958;11.366;2023-10-13T10:27:29;4.43;;;2.55;;
17947;SDS011;9099;47.958;11.366;2023-10-13T10:29:57;5.63;;;2.45;;
17947;SDS011;9099;47.958;11.366;2023-10-13T10:32:36;6.82;;;2.78;;
17947;SDS011;9099;47.958;11.366;2023-10-13T10:35:06;3.28;;;2.35;;
17947;SDS011;9099;47.958;11.366;2023-10-13T10:37:39;6.00;;;2.72;;
17947;SDS011;9099;47.958;11.366;2023-10-13T10:40:12;14.48;;;3.30;;
17947;SDS011;9099;47.958;11.366;2023-10-13T10:43:00;8.35;;;3.00;;
17947;SDS011;9099;47.958;11.366;2023-10-13T10:45:33;3.33;;;2.67;;
17947;SDS011;9099;47.958;11.366;2023-10-13T10:48:11;3.80;;;2.42;;
17947;SDS011;9099;47.958;11.366;2023-10-13T10:50:43;4.43;;;2.42;;
17947;SDS011;9099;47.958;11.366;2023-10-13T10:53:10;4.30;;;2.67;;
17947;SDS011;9099;47.958;11.366;2023-10-13T10:55:37;6.32;;;2.58;;
17947;SDS011;9099;47.958;11.366;2023-10-13T10:58:05;4.22;;;2.40;;
17947;SDS011;9099;47.958;11.366;2023-10-13T11:00:48;3.78;;;2.65;;
17947;SDS011;9099;47.958;11.366;2023-10-13T11:03:26;2.60;;;2.28;;
17947;SDS011;9099;47.958;11.366;2023-10-13T11:05:53;3.03;;;2.22;;
17947;SDS011;9099;47.958;11.366;2023-10-13T11:08:20;4.43;;;2.30;;
17947;SDS011;9099;47.958;11.366;2023-10-13T11:10:56;4.30;;;2.35;;
17947;SDS011;9099;47.958;11.366;2023-10-13T11:13:26;5.25;;;2.17;;
17947;SDS011;9099;47.958;11.366;2023-10-13T11:15:56;3.90;;;2.33;;
17947;SDS011;9099;47.958;11.366;2023-10-13T11:18:28;4.97;;;2.45;;
17947;SDS011;9099;47.958;11.366;2023-10-13T11:21:03;3.83;;;2.33;;
17947;SDS011;9099;47.958;11.366;2023-10-13T11:23:32;3.10;;;2.00;;
17947;SDS011;9099;47.958;11.366;2023-10-13T11:26:02;5.75;;;2.30;;
17947;SDS011;9099;47.958;11.366;2023-10-13T11:28:31;3.17;;;2.40;;
17947;SDS011;9099;47.958;11.366;2023-10-13T11:30:59;5.40;;;2.45;;
17947;SDS011;9099;47.958;11.366;2023-10-13T11:33:35;8.70;;;2.33;;
17947;SDS011;9099;47.958;11.366;2023-10-13T11:36:11;3.72;;;2.33;;
17947;SDS011;9099;47.958;11.366;2023-10-13T11:38:44;4.65;;;2.30;;
17947;SDS011;9099;47.958;11.366;2023-10-13T11:41:15;4.38;;;2.40;;
17947;SDS011;9099;47.958;11.366;2023-10-13T11:43:46;3.28;;;2.08;;
17947;SDS011;9099;47.958;11.366;2023-10-13T11:46:37;3.50;;;2.33;;
17947;SDS011;9099;47.958;11.366;2023-10-13T11:49:21;3.97;;;2.22;;
17947;SDS011;9099;47.958;11.366;2023-10-13T11:51:59;2.83;;;2.00;;
17947;SDS011;9099;47.958;11.366;2023-10-13T11:54:42;4.20;;;2.55;;
17947;SDS011;9099;47.958;11.366;2023-10-13T11:57:12;4.90;;;2.45;;
17947;SDS011;9099;47.958;11.366;2023-10-13T11:59:43;2.22;;;1.85;;
17947;SDS011;9099;47.958;11.366;2023-10-13T12:02:21;3.78;;;2.20;;
17947;SDS011;9099;47.958;11.366;2023-10-13T12:05:05;2.83;;;2.30;;
17947;SDS011;9099;47.958;11.366;2023-10-13T12:07:52;2.80;;;2.28;;
17947;SDS011;9099;47.958;11.366;2023-10-13T12:10:28;6.72;;;2.38;;
17947;SDS011;9099;47.958;11.366;2023-10-13T12:13:14;4.20;;;2.40;;
17947;SDS011;9099;47.958;11.366;2023-10-13T12:15:43;5.07;;;2.70;;
17947;SDS011;9099;47.958;11.366;2023-10-13T12:18:16;4.00;;;1.95;;
17947;SDS011;9099;47.958;11.366;2023-10-13T12:20:44;3.35;;;2.28;;
17947;SDS011;9099;47.958;11.366;2023-10-13T12:23:12;3.25;;;2.10;;
17947;SDS011;9099;47.958;11.366;2023-10-13T12:25:42;2.83;;;2.13;;
17947;SDS011;9099;47.958;11.366;2023-10-13T12:28:25;3.15;;;2.22;;
17947;SDS011;9099;47.958;11.366;2023-10-13T12:30:55;5.15;;;2.50;;
17947;SDS011;9099;47.958;11.366;2023-10-13T12:33:24;2.80;;;2.42;;
17947;SDS011;9099;47.958;11.366;2023-10-13T12:35:55;5.80;;;2.45;;
17947;SDS011;9099;47.958;11.366;2023-10-13T12:38:39;3.47;;;2.08;;
17947;SDS011;9099;47.958;11.366;2023-10-13T12:41:37;3.63;;;2.25;;
17947;SDS011;9099;47.958;11.366;2023-10-13T12:44:21;4.25;;;2.20;;
17947;SDS011;9099;47.958;11.366;2023-10-13T12:47:06;2.95;;;2.13;;
17947;SDS011;9099;47.958;11.366;2023-10-13T12:49:50;5.82;;;2.80;;
17947;SDS011;9099;47.958;11.366;2023-10-13T12:52:33;4.63;;;2.08;;
17947;SDS011;9099;47.958;11.366;2023-10-13T12:54:59;2.83;;;2.30;;
17947;SDS011;9099;47.958;11.366;2023-10-13T12:57:34;5.57;;;2.20;;
17947;SDS011;9099;47.958;11.366;2023-10-13T13:00:08;4.00;;;2.33;;
17947;SDS011;9099;47.958;11.366;2023-10-13T13:02:47;4.55;;;2.10;;
17947;SDS011;9099;47.958;11.366;2023-10-13T13:05:17;3.63;;;1.90;;
17947;SDS011;9099;47.958;11.366;2023-10-13T13:07:48;3.28;;;2.08;;
17947;SDS011;9099;47.958;11.366;2023-10-13T13:10:19;3.83;;;2.30;;
17947;SDS011;9099;47.958;11.366;2023-10-13T13:12:53;3.40;;;2.28;;
17947;SDS011;9099;47.958;11.366;2023-10-13T13:15:20;3.97;;;2.20;;
17947;SDS011;9099;47.958;11.366;2023-10-13T13:17:50;4.30;;;2.15;;
17947;SDS011;9099;47.958;11.366;2023-10-13T13:20:16;5.03;;;2.03;;
17947;SDS011;9099;47.958;11.366;2023-10-13T13:22:53;3.83;;;1.98;;
17947;SDS011;9099;47.958;11.366;2023-10-13T13:25:20;6.07;;;2.13;;
17947;SDS011;9099;47.958;11.366;2023-10-13T13:27:51;2.97;;;2.00;;
17947;SDS011;9099;47.958;11.366;2023-10-13T13:30:18;4.60;;;2.50;;
17947;SDS011;9099;47.958;11.366;2023-10-13T13:32:47;3.75;;;2.42;;
17947;SDS011;9099;47.958;11.366;2023-10-13T13:35:16;5.60;;;2.42;;
17947;SDS011;9099;47.958;11.366;2023-10-13T13:37:43;6.30;;;2.60;;
17947;SDS011;9099;47.958;11.366;2023-10-13T13:40:11;4.13;;;2.53;;
17947;SDS011;9099;47.958;11.366;2023-10-13T13:42:41;3.85;;;2.30;;
17947;SDS011;9099;47.958;11.366;2023-10-13T13:45:12;4.32;;;2.67;;
17947;SDS011;9099;47.958;11.366;2023-10-13T13:47:46;4.78;;;2.40;;
17947;SDS011;9099;47.958;11.366;2023-10-13T13:50:19;4.47;;;2.30;;
17947;SDS011;9099;47.958;11.366;2023-10-13T13:52:50;2.72;;;2.20;;
17947;SDS011;9099;47.958;11.366;2023-10-13T13:55:18;3.05;;;2.20;;
17947;SDS011;9099;47.958;11.366;2023-10-13T13:57:45;5.47;;;2.40;;
17947;SDS011;9099;47.958;11.366;2023-10-13T14:00:15;6.47;;;2.30;;
17947;SDS011;9099;47.958;11.366;2023-10-13T14:02:48;6.18;;;2.55;;
17947;SDS011;9099;47.958;11.366;2023-10-13T14:05:15;4.97;;;2.30;;
17947;SDS011;9099;47.958;11.366;2023-10-13T14:07:43;3.45;;;2.05;;
17947;SDS011;9099;47.958;11.366;2023-10-13T14:10:14;5.32;;;2.45;;
17947;SDS011;9099;47.958;11.366;2023-10-13T14:12:56;3.10;;;2.20;;
17947;SDS011;9099;47.958;11.366;2023-10-13T14:15:32;7.30;;;2.42;;
17947;SDS011;9099;47.958;11.366;2023-10-13T14:18:05;2.97;;;1.98;;
17947;SDS011;9099;47.958;11.366;2023-10-13T14:20:37;4.07;;;2.30;;
17947;SDS011;9099;47.958;11.366;2023-10-13T14:23:06;3.22;;;2.30;;
17947;SDS011;9099;47.958;11.366;2023-10-13T14:25:36;6.35;;;2.50;;
17947;SDS011;9099;47.958;11.366;2023-10-13T14:28:04;4.55;;;2.15;;
17947;SDS011;9099;47.958;11.366;2023-10-13T14:30:31;6.85;;;2.78;;
17947;SDS011;9099;47.958;11.366;2023-10-13T14:32:58;6.82;;;2.30;;
17947;SDS011;9099;47.958;11.366;2023-10-13T14:35:26;4.00;;;2.20;;
17947;SDS011;9099;47.958;11.366;2023-10-13T14:37:53;4.15;;;2.20;;
17947;SDS011;9099;47.958;11.366;2023-10-13T14:40:21;5.05;;;2.38;;
17947;SDS011;9099;47.958;11.366;2023-10-13T14:42:48;5.15;;;2.50;;
17947;SDS011;9099;47.958;11.366;2023-10-13T14:45:14;4.68;;;2.22;;
17947;SDS011;9099;47.958;11.366;2023-10-13T14:47:42;4.90;;;2.00;;
17947;SDS011;9099;47.958;11.366;2023-10-13T14:50:10;5.78;;;2.45;;
17947;SDS011;9099;47.958;11.366;2023-10-13T14:52:44;5.40;;;2.42;;
17947;SDS011;9099;47.958;11.366;2023-10-13T14:55:12;4.53;;;2.13;;
17947;SDS011;9099;47.958;11.366;2023-10-13T14:57:46;3.28;;;2.47;;
17947;SDS011;9099;47.958;11.366;2023-10-13T15:00:15;3.28;;;2.20;;
17947;SDS011;9099;47.958;11.366;2023-10-13T15:02:49;4.88;;;2.38;;
17947;SDS011;9099;47.958;11.366;2023-10-13T15:05:17;4.65;;;2.30;;
17947;SDS011;9099;47.958;11.366;2023-10-13T15:07:44;3.97;;;2.20;;
17947;SDS011;9099;47.958;11.366;2023-10-13T15:10:12;7.55;;;2.67;;
17947;SDS011;9099;47.958;11.366;2023-10-13T15:12:41;3.22;;;2.03;;
17947;SDS011;9099;47.958;11.366;2023-10-13T15:15:11;4.90;;;2.17;;
17947;SDS011;9099;47.958;11.366;2023-10-13T15:17:41;6.80;;;2.30;;
17947;SDS011;9099;47.958;11.366;2023-10-13T15:20:09;4.00;;;2.55;;
17947;SDS011;9099;47.958;11.366;2023-10-13T15:22:41;5.30;;;2.22;;
17947;SDS011;9099;47.958;11.366;2023-10-13T15:25:08;3.80;;;2.13;;
17947;SDS011;9099;47.958;11.366;2023-10-13T15:27:42;3.83;;;1.98;;
17947;SDS011;9099;47.958;11.366;2023-10-13T15:30:16;5.25;;;2.22;;
17947;SDS011;9099;47.958;11.366;2023-10-13T15:32:48;4.38;;;2.20;;